createdAt,value
2022-08-25T00:06:13.567Z,22.50
2022-08-25T00:16:16.999Z,22.40
2022-08-25T00:26:19.443Z,22.20
2022-08-25T00:36:21.216Z,22.10
2022-08-25T00:46:29.071Z,22.00
2022-08-25T00:56:31.937Z,21.80
2022-08-25T01:06:39.100Z,21.70
2022-08-25T01:16:42.336Z,21.60
2022-08-25T01:26:44.388Z,21.40
2022-08-25T01:36:46.096Z,21.30
2022-08-25T01:46:47.880Z,21.20
2022-08-25T01:56:49.889Z,21.20
2022-08-25T02:06:51.628Z,21.10
2022-08-25T02:16:53.701Z,20.90
2022-08-25T02:26:55.524Z,20.80
2022-08-25T02:36:57.315Z,20.60
2022-08-25T02:46:59.110Z,20.50
2022-08-25T02:57:01.151Z,20.50
2022-08-25T03:07:03.683Z,20.50
2022-08-25T03:17:08.670Z,20.40
2022-08-25T03:27:10.472Z,20.30
2022-08-25T03:37:13.867Z,20.20
2022-08-25T03:47:15.506Z,20.10
2022-08-25T03:57:17.188Z,20.00
2022-08-25T04:07:18.840Z,19.90
2022-08-25T04:17:20.522Z,19.80
2022-08-25T04:27:22.132Z,19.80
2022-08-25T04:37:23.752Z,19.70
2022-08-25T04:47:26.333Z,19.70
2022-08-25T04:57:30.388Z,19.70
2022-08-25T05:07:32.025Z,19.70
2022-08-25T05:17:33.678Z,19.60
2022-08-25T05:27:35.300Z,19.60
2022-08-25T05:37:39.996Z,19.70
2022-08-25T05:47:41.635Z,19.80
2022-08-25T05:57:43.452Z,20.00
2022-08-25T06:07:46.837Z,20.10
2022-08-25T06:17:49.725Z,20.10
2022-08-25T06:27:52.047Z,20.30
2022-08-25T06:37:53.664Z,20.50
2022-08-25T06:47:59.240Z,20.70
2022-08-25T06:58:01.142Z,21.00
2022-08-25T07:08:03.472Z,21.20
2022-08-25T07:18:05.862Z,21.50
2022-08-25T07:28:07.711Z,21.80
2022-08-25T07:38:13.031Z,22.10
2022-08-25T07:48:19.892Z,22.40
2022-08-25T07:58:21.505Z,22.80
2022-08-25T08:08:24.219Z,23.10
2022-08-25T08:18:25.883Z,23.30
2022-08-25T08:28:28.054Z,23.60
2022-08-25T08:38:29.787Z,24.00
2022-08-25T08:48:51.896Z,24.20
2022-08-25T08:58:59.000Z,24.50
2022-08-25T09:09:06.871Z,24.70
2022-08-25T09:19:41.947Z,24.90
2022-08-25T09:30:05.437Z,25.20
2022-08-25T09:40:08.003Z,25.40
2022-08-25T09:50:18.819Z,25.60
2022-08-25T10:00:27.893Z,25.90
2022-08-25T10:10:36.692Z,26.10
2022-08-25T10:20:44.501Z,26.00
2022-08-25T10:31:15.056Z,25.90
2022-08-25T10:41:30.274Z,25.90
2022-08-25T10:51:54.955Z,25.90
2022-08-25T11:02:11.867Z,25.90
2022-08-25T11:12:29.249Z,25.90
2022-08-25T11:22:39.848Z,25.90
2022-08-25T11:32:47.271Z,26.10
2022-08-25T11:43:08.074Z,26.50
2022-08-25T11:53:12.695Z,27.00
2022-08-25T12:03:32.358Z,27.40
2022-08-25T12:13:42.700Z,27.70
2022-08-25T12:24:05.655Z,28.00
2022-08-25T12:34:36.443Z,28.30
2022-08-25T12:44:43.918Z,28.60
2022-08-25T12:54:58.372Z,28.80
2022-08-25T13:05:17.755Z,29.10
2022-08-25T13:15:58.189Z,29.00
2022-08-25T13:25:59.954Z,28.80
2022-08-25T13:36:21.149Z,28.80
2022-08-25T13:46:23.067Z,28.60
2022-08-25T13:56:39.906Z,28.60
2022-08-25T14:06:42.931Z,28.60
2022-08-25T14:16:52.100Z,28.90
2022-08-25T14:26:55.906Z,29.50
2022-08-25T14:36:59.909Z,32.50
2022-08-25T14:47:02.401Z,31.10
2022-08-25T14:57:08.358Z,30.00
2022-08-25T15:07:32.614Z,29.70
2022-08-25T15:17:34.245Z,29.60
2022-08-25T15:27:37.079Z,29.70
2022-08-25T15:37:39.556Z,29.40
2022-08-25T15:47:42.238Z,29.30
2022-08-25T15:57:44.936Z,29.10
2022-08-25T16:07:51.810Z,28.80
2022-08-25T16:17:53.675Z,28.60
2022-08-25T16:27:56.166Z,28.40
2022-08-25T16:37:59.351Z,28.30
2022-08-25T16:48:05.978Z,28.30
2022-08-25T16:58:12.678Z,28.20
2022-08-25T17:08:30.848Z,28.20
2022-08-25T17:18:32.958Z,28.10
2022-08-25T17:28:34.711Z,28.00
2022-08-25T17:38:37.029Z,28.00
2022-08-25T17:48:39.596Z,27.90
2022-08-25T17:58:47.129Z,27.90
2022-08-25T18:08:52.278Z,27.80
2022-08-25T18:18:55.799Z,27.60
2022-08-25T18:28:59.086Z,27.50
2022-08-25T18:39:19.464Z,27.30
2022-08-25T18:49:21.280Z,27.10
2022-08-25T18:59:28.448Z,27.00
2022-08-25T19:09:30.727Z,26.80
2022-08-25T19:19:32.432Z,26.70
2022-08-25T19:29:34.117Z,26.60
2022-08-25T19:39:39.261Z,26.40
2022-08-25T19:49:41.968Z,26.20
2022-08-25T19:59:45.988Z,26.10
2022-08-25T20:09:49.719Z,25.90
2022-08-25T20:19:53.584Z,25.80
2022-08-25T20:29:55.226Z,25.60
2022-08-25T20:39:59.134Z,25.50
2022-08-25T20:50:04.654Z,25.40
2022-08-25T21:00:09.863Z,25.20
2022-08-25T21:10:14.465Z,25.10
2022-08-25T21:20:17.151Z,24.90
2022-08-25T21:30:18.889Z,24.90
2022-08-25T21:40:21.944Z,24.80
2022-08-25T21:50:24.904Z,24.60
2022-08-25T22:00:27.316Z,24.40
2022-08-25T22:10:28.989Z,24.20
2022-08-25T22:20:30.941Z,24.10
2022-08-25T22:30:34.223Z,24.00
2022-08-25T22:40:37.479Z,23.90
2022-08-25T22:50:39.153Z,23.70
2022-08-25T23:00:42.196Z,23.60
2022-08-25T23:10:52.908Z,23.50
2022-08-25T23:21:13.341Z,23.40
2022-08-25T23:31:17.643Z,23.40
2022-08-25T23:41:21.816Z,23.20
2022-08-25T23:51:29.747Z,23.20
